createdAt,value
2018-02-09T00:02:03.080Z,56.77
2018-02-09T00:04:30.628Z,54.63
2018-02-09T00:06:58.174Z,55.20
2018-02-09T00:09:25.712Z,54.27
2018-02-09T00:11:53.260Z,55.87
2018-02-09T00:14:20.830Z,54.97
2018-02-09T00:16:48.350Z,63.40
2018-02-09T00:19:15.906Z,70.63
2018-02-09T00:21:44.248Z,58.17
2018-02-09T00:24:11.827Z,67.27
2018-02-09T00:26:40.297Z,127.90
2018-02-09T00:29:08.765Z,75.87
2018-02-09T00:31:36.342Z,132.03
2018-02-09T00:34:03.899Z,103.20
2018-02-09T00:36:32.233Z,55.53
2018-02-09T00:38:59.851Z,60.00
2018-02-09T00:41:28.722Z,56.57
2018-02-09T00:43:56.271Z,58.13
2018-02-09T00:46:23.895Z,55.80
2018-02-09T00:48:51.971Z,52.93
2018-02-09T00:51:19.561Z,55.07
2018-02-09T00:53:47.875Z,54.27
2018-02-09T00:56:15.410Z,57.03
2018-02-09T00:58:43.726Z,56.50
2018-02-09T01:01:12.582Z,57.33
2018-02-09T01:03:40.931Z,55.87
2018-02-09T01:06:09.249Z,56.53
2018-02-09T01:08:36.786Z,58.10
2018-02-09T01:11:04.376Z,57.10
2018-02-09T01:13:31.899Z,55.77
2018-02-09T01:16:00.210Z,57.47
2018-02-09T01:18:27.787Z,57.47
2018-02-09T01:20:55.302Z,56.53
2018-02-09T01:23:22.811Z,56.03
2018-02-09T01:25:50.418Z,55.87
2018-02-09T01:28:18.732Z,55.30
2018-02-09T01:30:46.264Z,56.73
2018-02-09T01:33:14.114Z,54.20
2018-02-09T01:35:42.423Z,55.70
2018-02-09T01:38:10.191Z,55.93
2018-02-09T01:40:38.331Z,57.30
2018-02-09T01:43:06.660Z,55.70
2018-02-09T01:45:34.273Z,56.20
2018-02-09T01:48:02.579Z,56.67
2018-02-09T01:50:30.135Z,56.53
2018-02-09T01:52:57.677Z,55.27
2018-02-09T01:55:25.236Z,56.03
2018-02-09T01:57:53.573Z,57.67
2018-02-09T02:00:21.234Z,55.07
2018-02-09T02:02:49.138Z,52.17
2018-02-09T02:05:16.772Z,57.90
2018-02-09T02:07:44.308Z,52.10
2018-02-09T02:10:12.083Z,56.53
2018-02-09T02:12:41.262Z,54.87
2018-02-09T02:15:09.562Z,54.93
2018-02-09T02:17:38.091Z,56.50
2018-02-09T02:20:06.500Z,57.50
2018-02-09T02:22:34.755Z,54.20
2018-02-09T02:25:04.048Z,54.77
2018-02-09T02:27:32.338Z,58.60
2018-02-09T02:29:59.881Z,55.87
2018-02-09T02:32:28.310Z,55.47
2018-02-09T02:34:57.969Z,54.03
2018-02-09T02:37:25.517Z,55.07
2018-02-09T02:39:53.588Z,52.47
2018-02-09T02:42:21.920Z,53.87
2018-02-09T02:44:50.040Z,52.43
2018-02-09T02:47:17.622Z,51.60
2018-02-09T02:49:45.205Z,55.47
2018-02-09T02:52:12.786Z,53.10
2018-02-09T02:54:40.321Z,51.47
2018-02-09T02:57:07.898Z,50.67
2018-02-09T02:59:35.660Z,52.17
2018-02-09T03:02:03.695Z,53.07
2018-02-09T03:04:32.471Z,53.20
2018-02-09T03:07:00.088Z,52.93
2018-02-09T03:09:28.449Z,49.70
2018-02-09T03:11:56.003Z,51.83
2018-02-09T03:14:23.579Z,52.40
2018-02-09T03:16:51.118Z,52.50
2018-02-09T03:19:18.647Z,51.73
2018-02-09T03:21:47.042Z,50.43
2018-02-09T03:24:14.593Z,51.43
2018-02-09T03:26:42.139Z,51.10
2018-02-09T03:29:10.514Z,52.10
2018-02-09T03:31:38.052Z,53.93
2018-02-09T03:34:05.604Z,55.23
2018-02-09T03:36:34.591Z,54.70
2018-02-09T03:39:02.123Z,52.00
2018-02-09T03:41:29.694Z,51.70
2018-02-09T03:43:57.322Z,52.77
2018-02-09T03:46:24.864Z,50.63
2018-02-09T03:48:53.841Z,50.40
2018-02-09T03:51:21.458Z,49.07
2018-02-09T03:53:49.042Z,49.50
2018-02-09T03:56:16.607Z,50.30
2018-02-09T03:58:44.143Z,53.27
2018-02-09T04:01:11.708Z,49.53
2018-02-09T04:03:39.391Z,50.87
2018-02-09T04:06:07.837Z,48.90
2018-02-09T04:08:35.369Z,49.20
2018-02-09T04:11:04.536Z,50.60
2018-02-09T04:13:32.079Z,53.93
2018-02-09T04:15:59.669Z,51.67
2018-02-09T04:18:27.279Z,50.63
2018-02-09T04:20:56.156Z,50.43
2018-02-09T04:23:25.285Z,49.73
2018-02-09T04:25:52.853Z,47.90
2018-02-09T04:28:20.899Z,49.23
2018-02-09T04:30:48.486Z,48.10
2018-02-09T04:33:16.058Z,50.97
2018-02-09T04:35:43.599Z,49.13
2018-02-09T04:38:11.799Z,53.63
2018-02-09T04:40:39.361Z,49.33
2018-02-09T04:43:06.975Z,52.40
2018-02-09T04:45:36.965Z,51.40
2018-02-09T04:48:04.546Z,52.57
2018-02-09T04:50:32.103Z,48.17
2018-02-09T04:53:00.458Z,51.73
2018-02-09T04:55:28.032Z,55.60
2018-02-09T04:57:57.038Z,54.20
2018-02-09T05:00:24.615Z,55.03
2018-02-09T05:02:52.353Z,56.27
2018-02-09T05:05:19.911Z,56.23
2018-02-09T05:07:47.653Z,57.57
2018-02-09T05:10:16.129Z,57.90
2018-02-09T05:12:43.694Z,57.67
2018-02-09T05:15:11.280Z,54.10
2018-02-09T05:17:38.872Z,54.50
2018-02-09T05:20:07.125Z,56.73
2018-02-09T05:22:34.663Z,52.63
2018-02-09T05:25:03.008Z,51.17
2018-02-09T05:27:30.590Z,52.50
2018-02-09T05:29:58.935Z,50.70
2018-02-09T05:32:26.959Z,54.33
2018-02-09T05:34:54.498Z,52.20
2018-02-09T05:37:22.935Z,50.43
2018-02-09T05:39:50.480Z,51.40
2018-02-09T05:42:18.011Z,48.73
2018-02-09T05:44:46.376Z,51.50
2018-02-09T05:47:13.915Z,49.20
2018-02-09T05:49:43.058Z,48.50
2018-02-09T05:52:13.106Z,49.33
2018-02-09T05:54:40.921Z,48.20
2018-02-09T05:57:08.434Z,50.10
2018-02-09T05:59:35.988Z,47.30
2018-02-09T06:02:03.549Z,50.53
2018-02-09T06:04:31.123Z,48.37
2018-02-09T06:06:59.912Z,49.70
2018-02-09T06:09:28.547Z,47.37
2018-02-09T06:11:56.114Z,45.97
2018-02-09T06:14:24.435Z,46.77
2018-02-09T06:16:52.593Z,46.47
2018-02-09T06:19:20.744Z,46.63
2018-02-09T06:21:48.287Z,44.03
2018-02-09T06:24:15.854Z,49.97
2018-02-09T06:26:44.216Z,46.17
2018-02-09T06:29:11.773Z,46.43
2018-02-09T06:31:40.399Z,46.73
2018-02-09T06:34:08.038Z,49.80
2018-02-09T06:36:36.508Z,46.17
2018-02-09T06:39:04.138Z,48.57
2018-02-09T06:41:31.701Z,45.77
2018-02-09T06:43:59.888Z,44.47
2018-02-09T06:46:27.480Z,44.50
2018-02-09T06:48:56.413Z,45.20
2018-02-09T06:51:24.019Z,45.83
2018-02-09T06:53:52.945Z,45.70
2018-02-09T06:56:20.521Z,44.23
2018-02-09T06:58:48.058Z,44.50
2018-02-09T07:01:15.646Z,45.50
2018-02-09T07:03:44.840Z,45.57
2018-02-09T07:06:12.471Z,44.47
2018-02-09T07:08:40.398Z,46.40
2018-02-09T07:11:08.252Z,44.50
2018-02-09T07:13:37.303Z,45.00
2018-02-09T07:16:04.889Z,44.50
2018-02-09T07:18:32.428Z,44.17
2018-02-09T07:21:00.071Z,44.87
2018-02-09T07:23:28.385Z,43.10
2018-02-09T07:25:56.018Z,43.20
2018-02-09T07:28:23.929Z,43.20
2018-02-09T07:30:52.653Z,42.27
2018-02-09T07:33:20.270Z,44.03
2018-02-09T07:35:48.512Z,40.17
2018-02-09T07:38:16.171Z,39.30
2018-02-09T07:40:44.516Z,40.50
2018-02-09T07:43:12.453Z,39.67
2018-02-09T07:45:39.952Z,41.67
2018-02-09T07:48:07.548Z,42.27
2018-02-09T07:50:35.163Z,41.93
2018-02-09T07:53:02.763Z,43.13
2018-02-09T07:55:31.096Z,39.27
2018-02-09T07:57:58.724Z,40.17
2018-02-09T08:00:26.273Z,39.60
2018-02-09T08:02:53.853Z,40.87
2018-02-09T08:05:21.477Z,40.80
2018-02-09T08:07:49.823Z,41.00
2018-02-09T08:10:17.577Z,40.03
2018-02-09T08:12:45.125Z,38.90
2018-02-09T08:15:12.719Z,38.77
2018-02-09T08:17:40.910Z,35.07
2018-02-09T08:20:09.305Z,38.73
2018-02-09T08:35:32.649Z,36.43
2018-02-09T08:38:00.206Z,39.90
2018-02-09T08:40:27.767Z,39.40
2018-02-09T08:42:55.344Z,33.80
2018-02-09T08:45:23.008Z,37.97
2018-02-09T08:47:51.478Z,37.77
2018-02-09T08:50:19.048Z,35.70
2018-02-09T08:52:46.612Z,37.40
2018-02-09T08:55:14.230Z,37.40
2018-02-09T08:57:41.815Z,40.40
2018-02-09T09:00:09.352Z,39.57
2018-02-09T09:02:36.885Z,37.43
2018-02-09T09:05:04.518Z,40.50
2018-02-09T09:07:32.061Z,41.00
2018-02-09T09:09:59.598Z,40.63
2018-02-09T09:12:27.216Z,38.30
2018-02-09T09:14:54.820Z,39.20
2018-02-09T09:17:23.636Z,36.50
2018-02-09T09:19:51.572Z,35.87
2018-02-09T09:22:19.164Z,37.40
2018-02-09T09:24:46.703Z,38.40
2018-02-09T09:27:14.307Z,38.63
2018-02-09T09:29:43.509Z,38.67
2018-02-09T09:32:11.049Z,38.67
2018-02-09T09:34:38.629Z,40.70
2018-02-09T09:37:06.176Z,38.60
2018-02-09T09:39:33.744Z,38.10
2018-02-09T09:42:01.305Z,38.80
2018-02-09T09:44:28.852Z,38.60
2018-02-09T09:46:56.461Z,36.00
2018-02-09T09:49:24.792Z,39.37
2018-02-09T09:51:52.682Z,39.27
2018-02-09T09:54:20.196Z,38.20
2018-02-09T09:56:47.741Z,35.90
2018-02-09T09:59:16.075Z,38.03
2018-02-09T10:01:43.628Z,39.27
2018-02-09T10:04:11.165Z,38.23
2018-02-09T10:06:39.272Z,37.63
2018-02-09T10:09:06.847Z,40.60
2018-02-09T10:11:34.451Z,36.07
2018-02-09T10:14:02.028Z,39.10
2018-02-09T10:16:29.585Z,37.90
2018-02-09T10:18:58.498Z,40.03
2018-02-09T10:21:27.265Z,37.70
2018-02-09T10:23:54.830Z,37.33
2018-02-09T10:26:23.122Z,35.83
2018-02-09T10:28:51.132Z,37.40
2018-02-09T10:31:20.045Z,37.00
2018-02-09T10:46:42.628Z,35.30
2018-02-09T10:49:10.272Z,35.97
2018-02-09T10:51:38.444Z,38.07
2018-02-09T10:54:06.712Z,38.00
2018-02-09T10:56:34.225Z,37.60
2018-02-09T10:59:02.606Z,37.93
2018-02-09T11:01:41.474Z,36.57
2018-02-09T11:04:09.015Z,37.43
2018-02-09T11:06:36.710Z,38.17
2018-02-09T11:09:04.331Z,38.60
2018-02-09T11:11:32.217Z,37.77
2018-02-09T11:13:59.805Z,38.27
2018-02-09T11:16:27.371Z,36.40
2018-02-09T11:18:54.920Z,37.07
2018-02-09T11:21:22.526Z,36.13
2018-02-09T11:23:50.135Z,36.20
2018-02-09T11:26:17.781Z,38.57
2018-02-09T11:28:45.448Z,35.67
2018-02-09T11:31:13.919Z,35.80
2018-02-09T11:33:42.348Z,35.97
2018-02-09T11:36:10.812Z,36.50
2018-02-09T11:38:38.382Z,35.40
2018-02-09T11:41:07.730Z,35.90
2018-02-09T11:43:36.134Z,36.97
2018-02-09T11:46:04.472Z,34.67
2018-02-09T11:48:32.019Z,36.57
2018-02-09T11:50:59.606Z,36.03
2018-02-09T11:53:27.956Z,36.37
2018-02-09T11:55:56.103Z,38.60
2018-02-09T11:58:23.620Z,37.73
2018-02-09T12:00:51.196Z,34.33
2018-02-09T12:03:18.747Z,34.77
2018-02-09T12:05:46.303Z,36.67
2018-02-09T12:08:13.971Z,37.73
2018-02-09T12:10:41.508Z,36.83
2018-02-09T12:13:09.072Z,37.13
2018-02-09T12:15:37.442Z,36.90
2018-02-09T12:18:06.254Z,36.40
2018-02-09T12:20:34.440Z,35.33
2018-02-09T12:23:02.058Z,35.13
2018-02-09T12:25:29.597Z,35.43
2018-02-09T12:27:57.145Z,34.97
2018-02-09T12:30:24.719Z,37.63
2018-02-09T12:32:52.280Z,37.50
2018-02-09T12:35:20.611Z,36.53
2018-02-09T12:37:48.168Z,36.40
2018-02-09T12:40:15.854Z,35.30
2018-02-09T12:42:43.382Z,36.90
2018-02-09T12:45:10.929Z,34.63
2018-02-09T12:47:39.309Z,35.33
2018-02-09T12:50:07.616Z,36.53
2018-02-09T12:52:35.286Z,37.10
2018-02-09T12:55:02.870Z,34.87
2018-02-09T12:57:30.426Z,36.67
2018-02-09T12:59:57.988Z,36.73
2018-02-09T13:02:25.531Z,36.20
2018-02-09T13:04:53.086Z,35.70
2018-02-09T13:07:20.664Z,37.80
2018-02-09T13:09:49.017Z,34.73
2018-02-09T13:15:22.277Z,37.70
2018-02-09T13:17:50.082Z,36.20
2018-02-09T13:20:17.622Z,35.23
2018-02-09T13:22:56.895Z,35.93
2018-02-09T13:25:24.523Z,36.47
2018-02-09T13:27:53.498Z,35.37
2018-02-09T13:30:21.916Z,36.17
2018-02-09T13:33:01.266Z,37.27
2018-02-09T13:35:28.897Z,40.10
2018-02-09T13:37:57.242Z,36.60
2018-02-09T13:40:24.876Z,34.83
2018-02-09T13:42:52.463Z,39.53
2018-02-09T13:45:20.012Z,37.70
2018-02-09T13:47:47.596Z,37.47
2018-02-09T13:50:15.210Z,42.27
2018-02-09T13:52:42.746Z,40.70
2018-02-09T13:55:10.443Z,42.53
2018-02-09T13:57:38.022Z,34.50
2018-02-09T14:00:06.463Z,38.47
2018-02-09T14:02:34.724Z,38.73
2018-02-09T14:05:02.320Z,38.63
2018-02-09T14:07:30.098Z,37.00
2018-02-09T14:09:57.672Z,40.43
2018-02-09T14:12:26.011Z,41.13
2018-02-09T14:14:54.434Z,40.60
2018-02-09T14:17:21.984Z,38.17
2018-02-09T14:19:49.535Z,37.33
2018-02-09T14:22:17.552Z,36.70
2018-02-09T14:24:45.082Z,34.97
2018-02-09T14:27:12.623Z,40.13
2018-02-09T14:29:41.108Z,37.00
2018-02-09T14:32:08.733Z,35.07
2018-02-09T14:34:36.289Z,35.20
2018-02-09T14:37:03.849Z,35.07
2018-02-09T14:39:31.516Z,33.70
2018-02-09T14:41:59.103Z,35.60
2018-02-09T14:44:27.123Z,37.33
2018-02-09T14:46:55.352Z,36.30
2018-02-09T14:49:24.147Z,38.43
2018-02-09T14:51:52.139Z,37.90
2018-02-09T14:54:19.720Z,36.13
2018-02-09T14:56:47.285Z,38.30
2018-02-09T14:59:14.905Z,36.83
2018-02-09T15:01:42.513Z,36.53
2018-02-09T15:04:15.268Z,35.87
2018-02-09T15:06:43.480Z,36.10
2018-02-09T15:09:11.002Z,37.33
2018-02-09T15:11:40.083Z,33.20
2018-02-09T15:14:07.701Z,30.87
2018-02-09T15:16:35.666Z,35.27
2018-02-09T15:19:03.408Z,35.73
2018-02-09T15:21:31.007Z,31.50
2018-02-09T15:23:58.641Z,31.07
2018-02-09T15:26:26.337Z,30.00
2018-02-09T15:28:53.982Z,30.80
2018-02-09T15:31:21.886Z,33.20
2018-02-09T15:33:49.770Z,32.73
2018-02-09T15:36:18.628Z,31.47
2018-02-09T15:38:46.218Z,31.90
2018-02-09T15:41:13.923Z,34.87
2018-02-09T15:43:41.983Z,34.27
2018-02-09T15:46:11.754Z,32.67
2018-02-09T15:48:39.321Z,30.93
2018-02-09T15:51:06.954Z,32.77
2018-02-09T15:53:34.500Z,33.77
2018-02-09T15:56:02.754Z,31.07
2018-02-09T15:58:31.234Z,32.80
2018-02-09T16:00:59.533Z,32.17
2018-02-09T16:16:22.186Z,32.83
2018-02-09T16:18:49.770Z,30.50
2018-02-09T16:21:17.330Z,30.93
2018-02-09T16:23:44.903Z,32.00
2018-02-09T16:26:14.119Z,34.30
2018-02-09T16:28:41.705Z,32.00
2018-02-09T16:31:09.245Z,33.27
2018-02-09T16:33:36.818Z,33.40
2018-02-09T16:36:04.369Z,34.97
2018-02-09T16:38:31.927Z,33.90
2018-02-09T16:40:59.529Z,35.60
2018-02-09T16:43:27.099Z,35.83
2018-02-09T16:45:55.272Z,35.77
2018-02-09T16:48:24.481Z,33.53
2018-02-09T16:50:53.371Z,34.67
2018-02-09T16:53:20.953Z,34.30
2018-02-09T16:55:49.317Z,38.10
2018-02-09T16:58:17.585Z,34.23
2018-02-09T17:00:45.104Z,34.67
2018-02-09T17:03:13.692Z,34.63
2018-02-09T17:05:42.209Z,32.50
2018-02-09T17:08:10.386Z,34.27
2018-02-09T17:10:37.978Z,34.07
2018-02-09T17:13:05.587Z,38.63
2018-02-09T17:15:33.193Z,36.33
2018-02-09T17:18:00.824Z,35.53
2018-02-09T17:20:28.367Z,39.40
2018-02-09T17:22:55.898Z,36.37
2018-02-09T17:25:23.659Z,40.47
2018-02-09T17:27:51.713Z,38.90
2018-02-09T17:30:19.440Z,37.53
2018-02-09T17:32:47.028Z,37.17
2018-02-09T17:35:15.414Z,37.70
2018-02-09T17:37:42.941Z,38.33
2018-02-09T17:40:11.796Z,37.57
2018-02-09T17:42:40.154Z,36.57
2018-02-09T17:45:07.693Z,38.20
2018-02-09T17:47:36.759Z,38.13
2018-02-09T17:50:04.678Z,40.30
2018-02-09T17:52:32.813Z,37.57
2018-02-09T17:55:00.395Z,37.23
2018-02-09T17:57:30.367Z,37.70
2018-02-09T17:59:59.790Z,36.90
2018-02-09T18:02:28.623Z,40.37
2018-02-09T18:04:57.599Z,41.60
2018-02-09T18:07:27.287Z,39.90
2018-02-09T18:09:55.750Z,40.67
2018-02-09T18:12:24.654Z,41.13
2018-02-09T18:14:54.081Z,42.30
2018-02-09T18:17:28.601Z,40.23
2018-02-09T18:19:56.764Z,40.57
2018-02-09T18:22:25.626Z,40.97
2018-02-09T18:24:54.416Z,40.27
2018-02-09T18:27:24.543Z,40.20
2018-02-09T18:29:53.941Z,41.10
2018-02-09T18:32:22.602Z,41.70
2018-02-09T18:34:50.622Z,45.57
2018-02-09T18:37:19.186Z,45.50
2018-02-09T18:39:47.193Z,42.27
2018-02-09T18:42:17.870Z,43.67
2018-02-09T18:44:46.915Z,45.23
2018-02-09T18:47:16.967Z,40.40
2018-02-09T18:49:47.742Z,40.97
2018-02-09T18:52:16.232Z,43.37
2018-02-09T18:54:45.711Z,46.10
2018-02-09T18:57:13.358Z,42.20
2018-02-09T18:59:41.042Z,45.57
2018-02-09T19:02:08.642Z,40.83
2018-02-09T19:04:36.979Z,41.37
2018-02-09T19:07:04.571Z,38.70
2018-02-09T19:09:33.479Z,41.30
2018-02-09T19:12:01.853Z,39.10
2018-02-09T19:14:29.405Z,40.10
2018-02-09T19:16:57.723Z,39.23
2018-02-09T19:19:25.280Z,42.17
2018-02-09T19:21:52.822Z,38.63
2018-02-09T19:24:21.433Z,36.70
2018-02-09T19:26:49.015Z,37.03
2018-02-09T19:29:16.573Z,35.20
2018-02-09T19:31:44.154Z,35.93
2018-02-09T19:34:11.685Z,33.53
2018-02-09T19:36:39.255Z,33.23
2018-02-09T19:39:06.786Z,33.20
2018-02-09T19:41:34.388Z,31.13
2018-02-09T19:44:01.898Z,32.23
2018-02-09T19:46:30.326Z,31.57
2018-02-09T19:48:58.635Z,29.70
2018-02-09T19:51:26.221Z,28.83
2018-02-09T19:53:54.083Z,29.53
2018-02-09T19:56:21.654Z,29.63
2018-02-09T19:58:49.233Z,31.17
2018-02-09T20:01:16.783Z,31.80
2018-02-09T20:03:44.390Z,32.13
2018-02-09T20:06:11.984Z,31.27
2018-02-09T20:08:39.541Z,32.40
2018-02-09T20:11:07.104Z,31.03
2018-02-09T20:13:34.661Z,33.57
2018-02-09T20:16:03.939Z,35.43
2018-02-09T20:18:32.246Z,31.07
2018-02-09T20:20:59.831Z,29.80
2018-02-09T20:23:27.445Z,31.23
2018-02-09T20:25:55.840Z,29.63
2018-02-09T20:28:23.383Z,27.37
2018-02-09T20:30:50.948Z,30.97
2018-02-09T20:33:19.314Z,32.00
2018-02-09T20:35:47.614Z,30.47
2018-02-09T20:38:15.206Z,32.50
2018-02-09T20:40:42.758Z,31.17
2018-02-09T20:43:10.279Z,33.00
2018-02-09T20:45:38.619Z,32.20
2018-02-09T20:48:06.714Z,30.00
2018-02-09T20:50:35.015Z,33.13
2018-02-09T20:53:02.563Z,33.60
2018-02-09T20:55:30.098Z,32.53
2018-02-09T20:57:57.698Z,32.60
2018-02-09T21:00:25.286Z,36.43
2018-02-09T21:02:52.839Z,34.17
2018-02-09T21:05:20.428Z,34.90
2018-02-09T21:07:48.245Z,34.63
2018-02-09T21:10:15.884Z,33.83
2018-02-09T21:25:39.262Z,31.40
2018-02-09T21:28:06.860Z,32.70
2018-02-09T21:30:34.426Z,32.87
2018-02-09T21:33:02.003Z,32.27
2018-02-09T21:35:29.604Z,33.57
2018-02-09T21:37:57.135Z,31.50
2018-02-09T21:40:25.492Z,31.97
2018-02-09T21:42:53.094Z,31.87
2018-02-09T21:45:20.660Z,33.70
2018-02-09T21:47:48.194Z,31.40
2018-02-09T21:50:15.866Z,33.33
2018-02-09T21:52:43.429Z,34.60
2018-02-09T21:55:11.782Z,33.17
2018-02-09T21:57:39.415Z,34.43
2018-02-09T22:00:06.984Z,29.63
2018-02-09T22:02:35.058Z,30.83
2018-02-09T22:05:02.634Z,32.30
2018-02-09T22:07:30.311Z,30.20
2018-02-09T22:09:58.674Z,30.93
2018-02-09T22:12:27.088Z,33.30
2018-02-09T22:14:54.631Z,30.97
2018-02-09T22:17:22.220Z,33.80
2018-02-09T22:19:49.795Z,30.93
2018-02-09T22:22:18.150Z,31.17
2018-02-09T22:24:45.690Z,32.77
2018-02-09T22:27:13.405Z,28.97
2018-02-09T22:29:41.164Z,28.87
2018-02-09T22:32:08.714Z,29.17
2018-02-09T22:34:36.307Z,29.27
2018-02-09T22:37:03.839Z,28.80
2018-02-09T22:39:31.423Z,29.27
2018-02-09T22:41:58.951Z,30.50
2018-02-09T22:44:27.389Z,32.70
2018-02-09T22:46:54.981Z,31.97
2018-02-09T22:49:22.562Z,29.90
2018-02-09T22:51:50.132Z,28.67
2018-02-09T22:54:18.350Z,30.50
2018-02-09T22:56:46.238Z,29.10
2018-02-09T22:59:13.977Z,30.57
2018-02-09T23:01:42.315Z,30.77
2018-02-09T23:04:09.920Z,31.30
2018-02-09T23:06:38.313Z,30.70
2018-02-09T23:09:05.939Z,30.40
2018-02-09T23:11:33.454Z,32.30
2018-02-09T23:14:01.839Z,30.67
2018-02-09T23:16:29.404Z,31.97
2018-02-09T23:18:57.627Z,31.87
2018-02-09T23:21:25.150Z,33.47
2018-02-09T23:23:53.558Z,31.67
2018-02-09T23:26:21.177Z,31.07
2018-02-09T23:28:48.715Z,33.17
2018-02-09T23:31:16.275Z,33.63
2018-02-09T23:33:43.817Z,34.23
2018-02-09T23:36:12.755Z,32.73
2018-02-09T23:38:40.323Z,34.53
2018-02-09T23:41:07.851Z,33.70
2018-02-09T23:43:35.461Z,35.17
2018-02-09T23:46:03.021Z,35.47
2018-02-09T23:48:30.566Z,30.73
2018-02-09T23:50:58.126Z,31.80
2018-02-09T23:53:25.699Z,31.50
2018-02-09T23:55:53.290Z,30.67
2018-02-09T23:58:20.841Z,30.77
